Aviation Digital Data Service (ADDS)

Output produced by METARs form (0709 UTC 03 August 2021)
found at http://www.aviationweather.gov/metar/data/
 
Forecast for: RJFM (MIYAZAKI AIRPORT, JP)
Text: TAF RJFM 030507Z 0306/0412 09010KT 8000 -SHRA FEW015 SCT020 BKN025
Forecast period: 0600 UTC 03 August 2021 to 1200 UTC 04 August 2021
Forecast type: FROM: standard forecast or significant change
Winds: from the E (90 degrees) at 12 MPH (10 knots; 5.1 m/s)
Visibility: 5 miles (8 km)
Ceiling: 2500 feet AGL
Clouds: few clouds at 1500 feet AGL
scattered clouds at 2000 feet AGL
broken clouds at 2500 feet AGL
Weather: -SHRA  (light rain showers)
Text: TEMPO 0403/0409 3000 SHRA BR
Forecast period: 0300 to 0900 UTC 04 August 2021
Forecast type: TEMPORARY: The following changes expected for less than half the time period
Visibility: 1.86 miles (2.99 km)
Ceiling: unknown
Clouds: missing
Weather: SHRA BR  (rain showers, mist)